Westwood, NJ (07675)

9:00 PM EST on December 03, 2016 (GMT -0500)
Westwood, NJ | | Change Station

Elev 69 ft 40.99 °N, 74.03 °W | Updated 1 second ago

Overcast
Overcast
40.7 °F
Feels Like 41 °F
N
0.0
Wind Variable Wind from West

Today
High -- | Low -- °F
--% Chance of Precip.
Yesterday
High -- | Low -- °F
Precip. -- in
Pressure 30.12 in
Visibility 10.0 miles
Clouds Overcast 5000 ft
Windchill 41 °F
Dew Point 32 °F
Humidity 71%
Rainfall 0.00 in
Snow Depth Not available.
7:04 AM 4:28 PM
Waxing Crescent, 18% visible
METAR KTEB 040151Z 32012G18KT 10SM OVC050 06/M03 A3012 RMK AO2 SLP198 T00611028 $
Pressure 30.12 in
Visibility 10.0 miles
Clouds Overcast 5000 ft
Windchill 41 °F
Dew Point 32 °F
Humidity 71%
Rainfall 0.00 in
Snow Depth Not available.
7:04 AM 4:28 PM
Waxing Crescent, 18% visible
METAR KTEB 040151Z 32012G18KT 10SM OVC050 06/M03 A3012 RMK AO2 SLP198 T00611028 $

10-Day Weather Forecast

Almanac

Astronomy

Dec. 03, 2016 Rise Set
Actual Time
Civil Twilight
Nautical Twilight
Astronomical Twilight
Moon
Length of Visible Light
Length of Day
Tomorrow will be .
, % of the Moon is Illuminated

Today's Extremes

State Highs State Lows

Community

WunderPhotos

Upload Photos

1,955,560 photos uploaded!

WunderBlog® & News

Nearby

Air Quality

  Air Quality AQ Index Pollutant
Not available.

Snow Depth

Station Depth Elevation

Earthquake Activity

City Distance Mag. Time & Date
Minimum magnitude displayed is 2.5.

Coastal Water Temperatures

Place Temperature

Stations

Nearby Weather Stations

Station Location Temp. Windchill Dew Point Humidity Wind Precip. Elev Updated Type
                   

Watches & Warnings

There are currently no watches in effect.